Time;durP1;ratioP1;P1;durP2;ratioP2;P2;SDS_P1;SDS_P2;PMS_P1;PMS_P2;Temp;Humidity;BMP_temperature;BMP_pressure;BME280_temperature;BME280_humidity;BME280_pressure;Samples;Min_cycle;Max_cycle;Signal;HPM_P1;HPM_P2
2022/01/21 00:03:05;;;;;;;9.47;2.27;;;;;;;-2.63;91.39;100572.18;3550408;81;99581;-84
2022/01/21 00:08:06;;;;;;;10.00;3.40;;;;;;;-2.67;91.21;100563.06;3572064;81;99166;-84
2022/01/21 00:13:17;;;;;;;8.80;2.00;;;;;;;-2.70;91.27;100578.47;3584483;81;99012;-84
2022/01/21 00:18:11;;;;;;;8.90;2.77;;;;;;;-2.71;91.23;100580.09;3594749;81;98879;-84
2022/01/21 00:33:50;;;;;;;7.40;1.50;;;;;;;-2.78;90.92;100585.02;3575965;81;98704;-82
2022/01/21 00:38:53;;;;;;;8.60;2.43;;;;;;;-2.78;90.81;100594.45;3565832;81;98842;-82
2022/01/21 00:43:54;;;;;;;9.83;1.75;;;;;;;-2.79;90.61;100599.02;3590729;81;98109;-82
2022/01/21 00:48:54;;;;;;;5.30;1.25;;;;;;;-2.80;90.68;100604.15;3579411;81;99056;-82
2022/01/21 00:53:55;;;;;;;6.97;2.00;;;;;;;-2.81;90.48;100599.86;3583201;81;98792;-81
2022/01/21 00:58:56;;;;;;;4.73;1.27;;;;;;;-2.80;90.34;100587.99;3579782;81;98745;-82
2022/01/21 01:03:57;;;;;;;5.87;1.10;;;;;;;-2.81;90.08;100587.73;3551394;81;99098;-81
2022/01/21 01:08:58;;;;;;;9.43;1.72;;;;;;;-2.79;90.22;100595.55;3480620;82;98888;-81
2022/01/21 01:29:51;;;;;;;5.10;1.52;;;;;;;-2.78;90.58;100599.83;3479016;83;98913;-81
2022/01/21 01:34:52;;;;;;;7.80;1.40;;;;;;;-2.75;90.47;100596.55;3489163;83;32763;-84
2022/01/21 01:40:11;;;;;;;5.13;1.10;;;;;;;-2.70;90.51;100595.16;3489120;82;99005;-82
2022/01/21 01:50:26;;;;;;;10.45;1.92;;;;;;;-2.61;90.76;100596.15;3488879;83;99282;-84
2022/01/21 01:55:27;;;;;;;6.00;1.73;;;;;;;-2.57;90.53;100595.28;3484956;84;99368;-81
2022/01/21 02:00:28;;;;;;;6.60;1.50;;;;;;;-2.54;90.48;100590.67;3475311;83;99192;-81
2022/01/21 02:05:29;;;;;;;8.63;1.53;;;;;;;-2.55;90.28;100595.81;3509371;82;32217;-82
2022/01/21 02:10:30;;;;;;;9.03;2.70;;;;;;;-2.56;90.16;100609.03;3521032;81;98967;-82
2022/01/21 02:15:35;;;;;;;8.20;2.90;;;;;;;-2.57;90.40;100607.96;3527209;82;98848;-82
2022/01/21 02:25:53;;;;;;;8.73;1.50;;;;;;;-2.60;90.50;100618.77;3523692;82;98917;-82
2022/01/21 02:30:56;;;;;;;5.13;1.07;;;;;;;-2.60;90.54;100616.60;3511251;82;98861;-82
2022/01/21 02:35:57;;;;;;;7.35;1.82;;;;;;;-2.62;90.92;100617.45;3523991;82;98969;-82
2022/01/21 02:40:58;;;;;;;4.00;1.13;;;;;;;-2.64;91.12;100625.80;3510942;80;98780;-82
2022/01/21 02:46:04;;;;;;;8.67;1.67;;;;;;;-2.66;91.33;100629.87;3514887;82;98742;-82
2022/01/21 02:51:03;;;;;;;12.98;1.47;;;;;;;-2.67;91.64;100637.70;3510852;82;98565;-82
2022/01/21 02:56:05;;;;;;;11.22;2.45;;;;;;;-2.70;91.92;100636.91;3523502;81;99078;-82
2022/01/21 03:01:08;;;;;;;3.87;1.37;;;;;;;-2.72;92.47;100639.91;3511457;81;99497;-82
2022/01/21 03:06:09;;;;;;;8.10;1.57;;;;;;;-2.72;92.69;100642.60;3558513;81;98924;-82
2022/01/21 03:11:12;;;;;;;9.20;1.72;;;;;;;-2.71;92.93;100642.04;3572233;81;98665;-81
2022/01/21 03:16:13;;;;;;;6.60;2.00;;;;;;;-2.73;93.29;100643.66;3579539;81;98634;-82
2022/01/21 03:21:17;;;;;;;11.90;2.23;;;;;;;-2.73;93.31;100642.31;3591307;81;98729;-81
2022/01/21 03:26:24;;;;;;;10.25;1.60;;;;;;;-2.74;93.71;100642.62;3584034;81;99113;-81
2022/01/21 03:31:25;;;;;;;4.97;1.35;;;;;;;-2.75;94.25;100643.69;3578793;81;99069;-82
2022/01/21 03:36:28;;;;;;;4.65;1.12;;;;;;;-2.76;94.18;100649.64;3577335;81;98957;-82
2022/01/21 03:41:29;;;;;;;10.60;1.40;;;;;;;-2.76;94.48;100651.52;3576979;81;98798;-82
2022/01/21 03:46:30;;;;;;;9.33;1.33;;;;;;;-2.79;94.46;100659.61;3590887;81;99182;-82
2022/01/21 03:51:31;;;;;;;5.93;1.37;;;;;;;-2.79;94.82;100661.52;3577811;81;98866;-82
2022/01/21 03:56:32;;;;;;;7.83;1.63;;;;;;;-2.79;95.45;100665.56;3587671;81;98938;-82
2022/01/21 04:01:33;;;;;;;6.28;1.25;;;;;;;-2.80;95.27;100663.40;3580528;81;99196;-82
2022/01/21 04:06:34;;;;;;;10.43;1.90;;;;;;;-2.80;95.29;100674.17;3512844;81;99194;-83
2022/01/21 04:11:35;;;;;;;10.83;1.97;;;;;;;-2.82;95.70;100675.01;3479912;83;99136;-82
2022/01/21 04:16:36;;;;;;;5.17;1.40;;;;;;;-2.78;95.66;100689.50;3497041;82;98637;-82
2022/01/21 04:21:37;;;;;;;9.10;1.33;;;;;;;-2.88;95.54;100671.29;3484415;83;98669;-82
2022/01/21 04:26:38;;;;;;;11.43;1.70;;;;;;;-2.88;95.54;100671.29;3492779;83;98973;-81
2022/01/21 04:31:39;;;;;;;9.80;2.12;;;;;;;-2.78;95.82;100694.09;3497311;83;99433;-81
2022/01/21 04:36:40;;;;;;;8.47;1.73;;;;;;;-2.78;95.73;100690.84;3492284;83;98934;-82
2022/01/21 04:52:06;;;;;;;7.72;1.65;;;;;;;-2.75;95.85;100689.47;3490386;83;85062;-81
2022/01/21 04:57:08;;;;;;;6.33;1.37;;;;;;;-2.77;95.52;100676.31;3497296;83;98605;-81
2022/01/21 05:02:10;;;;;;;10.40;2.45;;;;;;;-2.77;95.58;100684.39;3495423;83;98805;-81
2022/01/21 05:07:14;;;;;;;11.78;1.72;;;;;;;-2.77;95.52;100684.39;3525450;81;99367;-81
2022/01/21 05:12:19;;;;;;;6.22;1.20;;;;;;;-2.76;95.71;100683.30;3559674;81;99007;-81
2022/01/21 05:17:17;;;;;;;9.48;2.10;;;;;;;-2.75;95.50;100689.47;3547813;81;32838;-81
2022/01/21 05:22:18;;;;;;;9.83;1.83;;;;;;;-2.74;95.44;100696.49;3569545;81;98792;-81
2022/01/21 05:27:19;;;;;;;6.90;2.93;;;;;;;-2.73;95.39;100701.58;3571468;81;98825;-81
2022/01/21 05:32:20;;;;;;;5.43;1.87;;;;;;;-2.73;95.41;100693.48;3569730;81;98851;-81
2022/01/21 05:37:21;;;;;;;10.57;1.83;;;;;;;-2.73;95.56;100689.45;3551616;81;99209;-81
2022/01/21 05:42:23;;;;;;;5.60;1.27;;;;;;;-2.71;95.58;100687.83;3562111;81;99434;-81
2022/01/21 05:47:24;;;;;;;10.37;1.20;;;;;;;-2.69;95.70;100684.33;3563133;81;26195;-81
2022/01/21 05:52:37;;;;;;;5.80;1.20;;;;;;;-2.67;95.54;100684.27;3557661;80;98920;-81
2022/01/21 05:57:34;;;;;;;9.10;2.33;;;;;;;-2.66;95.57;100672.44;3550088;81;98624;-81
2022/01/21 06:02:36;;;;;;;6.50;1.90;;;;;;;-2.64;95.49;100681.03;3558143;80;98967;-81
2022/01/21 06:07:37;;;;;;;8.20;1.60;;;;;;;-2.63;95.52;100675.89;3577170;80;98848;-81
2022/01/21 06:12:38;;;;;;;5.33;1.60;;;;;;;-2.63;95.42;100669.72;3566771;80;98791;-81
2022/01/21 06:17:39;;;;;;;6.90;1.70;;;;;;;-2.59;95.48;100674.78;3572944;81;26268;-81
2022/01/21 06:22:39;;;;;;;5.50;1.77;;;;;;;-2.59;95.37;100678.28;3546947;81;98533;-81
2022/01/21 06:27:40;;;;;;;6.00;1.60;;;;;;;-2.59;95.35;100672.90;3576237;81;99075;-81
2022/01/21 06:32:42;;;;;;;8.07;1.67;;;;;;;-2.58;95.42;100682.58;3561163;81;98803;-81
2022/01/21 06:37:43;;;;;;;13.77;3.67;;;;;;;-2.56;95.55;100691.73;3570785;81;99172;-81
2022/01/21 06:42:44;;;;;;;12.20;3.40;;;;;;;-2.52;95.57;100692.22;3554689;81;99001;-81
2022/01/21 06:47:46;;;;;;;24.53;6.23;;;;;;;-2.47;95.51;100700.82;3541486;81;98996;-81
2022/01/21 06:52:47;;;;;;;19.30;6.63;;;;;;;-2.42;95.56;100695.34;3549092;80;98860;-81
2022/01/21 06:57:48;;;;;;;21.37;9.77;;;;;;;-2.37;95.43;100700.16;3569934;81;99285;-81
2022/01/21 07:02:52;;;;;;;16.43;7.00;;;;;;;-2.33;95.32;100716.03;3560135;81;99071;-81
2022/01/21 07:07:55;;;;;;;10.07;2.73;;;;;;;-2.31;95.18;100708.45;3568721;81;98961;-80
2022/01/21 07:12:56;;;;;;;14.30;2.47;;;;;;;-2.27;95.21;100724.31;3553489;81;99060;-80
2022/01/21 07:17:57;;;;;;;11.30;2.20;;;;;;;-2.23;95.27;100728.59;3581830;81;99112;-81
2022/01/21 07:22:58;;;;;;;11.07;2.90;;;;;;;-2.21;95.08;100732.61;3545954;81;98710;-81
2022/01/21 07:27:59;;;;;;;13.27;2.80;;;;;;;-2.19;95.06;100729.07;3572760;81;98926;-81
2022/01/21 07:33:00;;;;;;;9.20;1.90;;;;;;;-2.14;95.02;100739.80;3563337;81;99089;-81
2022/01/21 07:38:01;;;;;;;18.70;5.80;;;;;;;-2.18;94.94;100721.80;3564378;81;98861;-81
2022/01/21 07:43:01;;;;;;;43.27;16.87;;;;;;;-2.18;94.94;100721.80;3557254;81;99434;-81
2022/01/21 07:48:04;;;;;;;16.97;6.60;;;;;;;-2.02;94.79;100742.13;3571418;81;99239;-81
2022/01/21 07:53:04;;;;;;;12.07;4.53;;;;;;;-1.99;94.81;100748.27;3557579;81;98784;-81
2022/01/21 07:58:05;;;;;;;12.30;3.13;;;;;;;-1.95;94.73;100739.88;3551163;81;98762;-81
2022/01/21 08:03:06;;;;;;;8.37;2.37;;;;;;;-1.89;94.58;100756.25;3565716;81;98960;-81
2022/01/21 08:08:07;;;;;;;10.27;5.00;;;;;;;-1.85;94.65;100759.46;3582027;80;99224;-81
2022/01/21 08:13:10;;;;;;;9.00;3.42;;;;;;;-1.78;94.63;100769.35;3573365;81;99005;-81
2022/01/21 08:18:15;;;;;;;8.70;2.15;;;;;;;-1.67;94.65;100771.38;3591118;81;98797;-82
2022/01/21 08:23:14;;;;;;;8.13;2.40;;;;;;;-1.56;94.65;100772.86;3557028;81;98267;-81
2022/01/21 08:28:15;;;;;;;12.60;2.47;;;;;;;-1.38;94.62;100774.81;3584478;81;98693;-81
2022/01/21 08:33:16;;;;;;;10.33;2.43;;;;;;;-1.21;94.83;100781.88;3571552;81;98809;-81
2022/01/21 08:38:17;;;;;;;18.43;6.17;;;;;;;-1.00;94.35;100791.30;3588660;81;98778;-82
2022/01/21 08:43:18;;;;;;;24.20;7.07;;;;;;;-0.73;94.58;100782.77;3634389;79;98840;-82
2022/01/21 08:48:19;;;;;;;13.03;3.37;;;;;;;-0.41;94.64;100785.50;3587263;80;102345;-82
2022/01/21 08:53:38;;;;;;;14.80;4.60;;;;;;;0.01;94.60;100783.95;3580487;81;32874;-83
2022/01/21 08:58:41;;;;;;;15.23;4.30;;;;;;;0.32;93.52;100770.07;3576568;81;98891;-82
2022/01/21 09:03:43;;;;;;;16.03;5.23;;;;;;;0.75;91.99;100791.12;3563910;81;98926;-82
2022/01/21 09:08:45;;;;;;;14.35;3.40;;;;;;;0.93;91.33;100806.44;3570734;81;98725;-81
2022/01/21 09:13:46;;;;;;;10.03;2.40;;;;;;;0.80;90.14;100811.34;3571014;81;98703;-81
2022/01/21 09:18:54;;;;;;;12.23;4.27;;;;;;;0.76;90.14;100811.69;3567884;81;98973;-82
2022/01/21 09:23:52;;;;;;;10.63;2.95;;;;;;;0.86;90.30;100814.19;3575128;81;98706;-82
2022/01/21 09:28:54;;;;;;;18.00;5.42;;;;;;;0.98;89.77;100812.29;3550401;81;98769;-82
2022/01/21 09:33:55;;;;;;;14.10;2.83;;;;;;;0.93;89.07;100817.84;3575370;80;98472;-82
2022/01/21 09:38:55;;;;;;;12.90;2.17;;;;;;;1.02;89.40;100820.88;3550992;81;98864;-81
2022/01/21 09:43:58;;;;;;;10.70;2.43;;;;;;;1.08;88.66;100822.38;3558181;81;98647;-82
2022/01/21 09:49:09;;;;;;;12.20;3.20;;;;;;;1.30;88.63;100826.48;3562587;81;98621;-83
2022/01/21 09:54:11;;;;;;;12.18;2.85;;;;;;;1.49;87.80;100820.32;3534085;81;99077;-83
2022/01/21 09:59:19;;;;;;;13.63;2.70;;;;;;;1.72;87.63;100813.00;3551628;81;98691;-83
2022/01/21 10:04:28;;;;;;;9.50;2.47;;;;;;;1.85;86.54;100802.08;3556093;81;98969;-84
2022/01/21 10:09:29;;;;;;;11.97;3.30;;;;;;;1.94;84.77;100798.88;3559825;81;98821;-84
2022/01/21 10:14:31;;;;;;;16.13;3.60;;;;;;;2.02;85.58;100791.89;3573226;81;98576;-84
2022/01/21 10:19:35;;;;;;;29.90;9.17;;;;;;;2.18;84.93;100803.37;3561657;81;98670;-83
2022/01/21 10:25:02;;;;;;;22.40;7.58;;;;;;;2.09;83.87;100794.38;3568686;81;98736;-83
2022/01/21 10:30:07;;;;;;;5.60;2.20;;;;;;;1.93;83.40;100799.98;3579616;81;98785;-83
2022/01/21 10:35:26;;;;;;;6.33;2.10;;;;;;;1.84;83.16;100800.48;3575576;81;26098;-83
2022/01/21 10:40:36;;;;;;;10.53;3.15;;;;;;;1.83;83.29;100794.81;3561276;81;98245;-83
2022/01/21 10:45:52;;;;;;;12.23;2.22;;;;;;;1.71;83.12;100802.69;3562674;80;98507;-83
2022/01/21 10:51:19;;;;;;;9.53;3.12;;;;;;;1.66;82.49;100798.78;3566496;80;98988;-83
2022/01/21 10:56:21;;;;;;;5.23;2.33;;;;;;;1.67;82.16;100795.49;3549222;81;98821;-82
2022/01/21 11:01:28;;;;;;;8.05;2.00;;;;;;;1.63;82.14;100796.67;3569010;81;98875;-84
2022/01/21 11:06:46;;;;;;;10.03;2.27;;;;;;;1.61;82.29;100792.12;3417116;84;98645;-84
2022/01/21 11:11:46;;;;;;;11.63;1.92;;;;;;;1.62;81.59;100802.39;3497264;82;98746;-84
2022/01/21 11:16:50;;;;;;;9.23;2.30;;;;;;;1.59;81.59;100808.45;3502476;82;26143;-84
2022/01/21 11:21:56;;;;;;;8.47;2.33;;;;;;;1.57;81.98;100813.36;3500956;82;98412;-83
2022/01/21 11:27:16;;;;;;;8.47;2.27;;;;;;;1.58;82.48;100809.00;3506860;82;98578;-83
2022/01/21 11:32:17;;;;;;;6.90;2.00;;;;;;;1.62;82.29;100797.78;3501913;82;99084;-82
2022/01/21 11:37:18;;;;;;;9.77;3.03;;;;;;;1.64;82.19;100796.91;3521956;82;98515;-84
2022/01/21 11:42:20;;;;;;;11.97;4.30;;;;;;;1.71;82.56;100796.48;3518958;82;98501;-84
2022/01/21 11:47:37;;;;;;;7.60;3.70;;;;;;;1.78;82.60;100799.55;3504665;83;33553;-84
2022/01/21 11:52:34;;;;;;;7.75;2.67;;;;;;;1.81;82.61;100793.52;3509032;83;99002;-83
2022/01/21 11:57:35;;;;;;;6.83;1.87;;;;;;;1.87;82.51;100794.42;3473985;81;98543;-84
2022/01/21 12:02:37;;;;;;;7.23;1.83;;;;;;;1.89;82.02;100800.36;3490724;83;98416;-84
2022/01/21 12:07:44;;;;;;;10.77;2.10;;;;;;;1.90;81.88;100789.73;3530650;82;98458;-84
2022/01/21 12:13:00;;;;;;;9.90;1.97;;;;;;;1.94;82.07;100784.48;3538195;81;98756;-83
2022/01/21 12:23:25;;;;;;;8.60;2.50;;;;;;;1.85;81.89;100788.52;3561213;81;97972;-83
2022/01/21 12:28:26;;;;;;;8.97;2.67;;;;;;;1.84;81.43;100779.31;3566970;80;98329;-83
2022/01/21 12:33:57;;;;;;;11.83;4.33;;;;;;;1.77;81.52;100788.46;3552958;81;98358;-83
2022/01/21 12:44:08;;;;;;;9.03;3.12;;;;;;;1.64;81.07;100779.85;3561405;81;98752;-83
2022/01/21 12:49:34;;;;;;;8.50;2.58;;;;;;;1.55;80.86;100778.98;3556284;81;98531;-84
2022/01/21 13:00:10;;;;;;;10.48;2.05;;;;;;;1.37;81.26;100776.69;3561872;81;98705;-85
2022/01/21 13:05:32;;;;;;;10.82;2.65;;;;;;;1.28;81.45;100785.33;3553630;81;25815;-85
2022/01/21 13:10:27;;;;;;;6.30;2.23;;;;;;;1.24;81.76;100785.69;3512808;82;98502;-84
2022/01/21 13:15:44;;;;;;;14.68;3.83;;;;;;;1.21;81.75;100792.28;3522311;82;98396;-84
2022/01/21 13:20:49;;;;;;;12.88;4.12;;;;;;;1.15;82.25;100788.86;3514272;82;99083;-84
2022/01/21 13:25:50;;;;;;;10.13;3.33;;;;;;;1.11;82.49;100784.38;3515174;82;98713;-84
2022/01/21 13:30:51;;;;;;;10.33;4.90;;;;;;;1.05;82.48;100778.25;3508280;82;98625;-84
2022/01/21 13:35:52;;;;;;;8.63;3.27;;;;;;;1.01;82.92;100771.86;3544019;81;98711;-84
2022/01/21 13:40:57;;;;;;;8.87;4.20;;;;;;;1.00;83.37;100778.93;3513845;82;98207;-84
2022/01/21 13:46:10;;;;;;;12.37;4.15;;;;;;;0.99;83.46;100777.34;3525166;82;98336;-84
2022/01/21 13:51:11;;;;;;;14.30;5.73;;;;;;;1.01;83.71;100777.28;3512311;82;98657;-84
2022/01/21 13:56:15;;;;;;;13.50;4.97;;;;;;;1.02;83.76;100779.41;3526311;82;99002;-84
2022/01/21 14:01:14;;;;;;;29.20;5.87;;;;;;;1.01;83.92;100786.77;3509685;82;98903;-84
2022/01/21 14:06:27;;;;;;;11.23;3.83;;;;;;;0.96;83.89;100782.81;3531218;81;98683;-86
2022/01/21 14:11:46;;;;;;;11.85;3.70;;;;;;;0.90;83.86;100785.92;3537138;81;98801;-84
2022/01/21 14:16:47;;;;;;;18.45;7.78;;;;;;;0.82;83.88;100786.66;3549457;81;99001;-83
2022/01/21 14:21:50;;;;;;;11.12;4.30;;;;;;;0.79;84.15;100790.77;3572281;81;98519;-84
2022/01/21 14:26:55;;;;;;;16.90;7.58;;;;;;;0.78;84.32;100793.20;3577732;80;98711;-83
2022/01/21 14:32:00;;;;;;;10.90;3.60;;;;;;;0.77;84.61;100809.79;3581698;81;98682;-85
2022/01/21 14:37:11;;;;;;;9.53;4.23;;;;;;;0.73;84.80;100806.07;3593918;81;98774;-84
2022/01/21 14:42:24;;;;;;;8.27;3.23;;;;;;;0.68;84.84;100807.53;3594520;80;98563;-83
2022/01/21 14:47:30;;;;;;;16.93;7.10;;;;;;;0.62;85.07;100810.88;3591391;81;26618;-85
2022/01/21 14:52:43;;;;;;;11.97;4.73;;;;;;;0.55;85.12;100798.88;3572960;81;98988;-86
2022/01/21 14:57:59;;;;;;;12.00;4.47;;;;;;;0.47;85.18;100803.08;3578097;81;98910;-83
2022/01/21 15:03:08;;;;;;;13.48;3.67;;;;;;;0.38;85.38;100804.88;3557102;81;99018;-84
2022/01/21 15:08:17;;;;;;;13.10;3.80;;;;;;;0.29;85.67;100806.66;3571570;81;98744;-84
2022/01/21 15:18:55;;;;;;;10.00;4.90;;;;;;;0.15;86.17;100823.45;3547769;81;98773;-84
2022/01/21 15:23:57;;;;;;;13.47;4.37;;;;;;;0.06;86.28;100826.59;3555387;81;98732;-84
2022/01/21 15:29:06;;;;;;;8.58;3.25;;;;;;;0.00;86.34;100827.00;3570055;81;98696;-84
2022/01/21 15:34:10;;;;;;;12.25;3.25;;;;;;;-0.06;86.42;100834.38;3560830;81;98151;-84
2022/01/21 15:39:14;;;;;;;11.57;3.77;;;;;;;-0.15;86.39;100833.45;3545998;81;98928;-84
2022/01/21 15:44:15;;;;;;;9.63;3.42;;;;;;;-0.21;86.46;100842.75;3574364;81;98868;-83
2022/01/21 15:49:16;;;;;;;9.83;3.37;;;;;;;-0.27;86.48;100844.50;3580889;80;99098;-84
2022/01/21 15:54:18;;;;;;;9.90;3.73;;;;;;;-0.34;86.62;100839.20;3585890;81;98840;-84
2022/01/21 15:59:22;;;;;;;15.47;4.57;;;;;;;-0.38;86.75;100856.58;3571373;81;98496;-84
2022/01/21 16:04:22;;;;;;;13.83;4.35;;;;;;;-0.44;86.82;100868.53;3581349;81;98652;-84
2022/01/21 16:09:23;;;;;;;13.27;4.17;;;;;;;-0.47;87.09;100864.27;3555809;81;98861;-84
2022/01/21 16:14:24;;;;;;;14.03;4.43;;;;;;;-0.51;87.32;100861.92;3553223;81;98949;-84
2022/01/21 16:19:25;;;;;;;14.70;4.23;;;;;;;-0.55;87.32;100863.02;3538385;81;98902;-84
2022/01/21 16:24:26;;;;;;;11.13;3.67;;;;;;;-0.57;87.47;100874.69;3549479;80;98831;-84
2022/01/21 16:29:32;;;;;;;14.57;4.43;;;;;;;-0.57;87.77;100877.92;3547287;81;100481;-84
2022/01/21 16:34:34;;;;;;;23.43;7.00;;;;;;;-0.54;87.92;100882.23;3561472;81;98863;-84
2022/01/21 16:39:36;;;;;;;17.27;5.63;;;;;;;-0.52;87.82;100896.25;3550350;81;98881;-84
2022/01/21 16:44:36;;;;;;;18.10;7.17;;;;;;;-0.48;87.81;100905.92;3555697;81;98870;-84
2022/01/21 16:49:37;;;;;;;16.03;6.03;;;;;;;-0.43;87.93;100909.91;3547112;81;99039;-84
2022/01/21 16:54:38;;;;;;;13.93;5.77;;;;;;;-0.39;88.17;100896.85;3565891;81;99378;-84
2022/01/21 16:59:39;;;;;;;14.67;4.83;;;;;;;-0.35;88.34;100897.87;3555553;81;98443;-85
2022/01/21 17:04:41;;;;;;;18.10;6.63;;;;;;;-0.29;88.33;100895.35;3561677;81;98645;-84
2022/01/21 17:09:43;;;;;;;21.17;6.67;;;;;;;-0.24;88.31;100895.84;3567430;81;98876;-84
2022/01/21 17:14:45;;;;;;;22.10;7.17;;;;;;;-0.19;88.05;100876.27;3571691;81;98849;-86
2022/01/21 17:19:46;;;;;;;16.63;5.07;;;;;;;-0.12;88.01;100878.03;3557222;81;99148;-85
2022/01/21 17:24:51;;;;;;;20.17;6.43;;;;;;;-0.11;88.30;100886.40;3550092;81;98821;-86
2022/01/21 17:29:52;;;;;;;19.62;5.33;;;;;;;-0.07;88.57;100885.28;3562647;81;98850;-84
2022/01/21 17:34:56;;;;;;;19.97;5.77;;;;;;;-0.07;88.91;100875.25;3554998;81;33046;-85
2022/01/21 17:39:56;;;;;;;17.67;5.55;;;;;;;-0.07;89.33;100881.48;3564135;81;98681;-85
2022/01/21 17:44:58;;;;;;;21.77;6.30;;;;;;;-0.02;89.47;100878.44;3561705;81;98896;-85
2022/01/21 17:50:01;;;;;;;14.20;4.75;;;;;;;-0.04;89.57;100879.52;3560237;81;99024;-84
2022/01/21 17:55:04;;;;;;;25.92;7.28;;;;;;;-0.04;89.78;100872.75;3559778;81;98920;-85
2022/01/21 18:00:10;;;;;;;21.30;6.25;;;;;;;-0.04;89.73;100872.75;3554512;81;99316;-84
2022/01/21 18:05:11;;;;;;;;;;;;;;;-0.04;89.83;100883.57;3569190;81;26121;-84
2022/01/21 18:10:25;;;;;;;24.37;6.97;;;;;;;-0.03;89.96;100877.63;3561724;81;85169;-84
2022/01/21 18:15:16;;;;;;;25.27;6.28;;;;;;;-0.04;89.80;100864.64;3536150;82;99196;-83
2022/01/21 18:20:16;;;;;;;19.17;4.83;;;;;;;-0.01;89.61;100857.83;3512905;81;98874;-83
2022/01/21 18:25:17;;;;;;;20.27;6.57;;;;;;;0.00;89.41;100851.34;3520554;82;98869;-84
2022/01/21 18:30:21;;;;;;;16.43;5.33;;;;;;;-0.01;89.15;100847.83;3505310;82;98783;-83
2022/01/21 18:35:22;;;;;;;14.03;4.30;;;;;;;0.02;88.69;100835.03;3523288;82;33030;-84
2022/01/21 18:40:23;;;;;;;14.87;4.20;;;;;;;0.05;88.31;100820.11;3523772;81;98956;-83
2022/01/21 18:45:41;;;;;;;17.13;5.07;;;;;;;0.07;88.24;100815.23;3545474;81;98572;-83
2022/01/21 18:50:38;;;;;;;29.47;10.10;;;;;;;0.08;87.85;100816.28;3513267;82;98643;-83
2022/01/21 18:55:40;;;;;;;22.83;7.37;;;;;;;0.10;87.51;100799.73;3524233;82;98910;-83
2022/01/21 19:00:42;;;;;;;14.53;3.93;;;;;;;0.13;87.48;100803.20;3522675;82;98671;-83
2022/01/21 19:05:44;;;;;;;12.20;3.77;;;;;;;0.15;87.55;100809.11;3519973;82;33045;-83
2022/01/21 19:10:47;;;;;;;16.07;3.33;;;;;;;0.15;87.26;100813.98;3537808;81;98658;-83
2022/01/21 19:15:49;;;;;;;10.00;3.17;;;;;;;0.16;87.19;100818.29;3580554;81;98830;-83
2022/01/21 19:20:50;;;;;;;12.87;2.83;;;;;;;0.16;87.12;100825.59;3557810;81;98691;-83
2022/01/21 19:25:55;;;;;;;15.67;3.47;;;;;;;0.17;87.18;100829.36;3564600;81;98731;-84
2022/01/21 19:31:00;;;;;;;17.50;4.25;;;;;;;0.18;87.04;100816.08;3539259;81;98714;-83
2022/01/21 19:36:04;;;;;;;16.42;3.72;;;;;;;0.18;87.02;100803.90;3566394;81;98657;-83
2022/01/21 19:41:05;;;;;;;22.70;6.75;;;;;;;0.17;86.90;100805.00;3547581;81;98385;-84
2022/01/21 19:46:11;;;;;;;26.33;9.57;;;;;;;0.16;86.75;100796.64;3552844;81;98709;-84
2022/01/21 19:51:10;;;;;;;36.63;12.18;;;;;;;0.14;86.75;100800.20;3549856;81;99030;-84
2022/01/21 19:56:17;;;;;;;30.57;9.93;;;;;;;0.08;86.75;100794.64;3534135;81;98912;-84
2022/01/21 20:01:23;;;;;;;26.27;9.97;;;;;;;0.06;86.98;100813.06;3559153;81;98779;-84
2022/01/21 20:12:04;;;;;;;14.47;4.93;;;;;;;0.03;86.87;100783.91;3570641;81;98454;-85
2022/01/21 20:16:55;;;;;;;12.60;4.67;;;;;;;0.04;86.93;100804.45;3543482;81;98848;-84
2022/01/21 20:21:57;;;;;;;12.57;3.97;;;;;;;0.03;87.07;100791.20;3576722;81;98716;-83
2022/01/21 20:26:59;;;;;;;14.17;3.73;;;;;;;0.04;87.29;100784.69;3559362;81;98605;-84
2022/01/21 20:32:01;;;;;;;11.63;3.77;;;;;;;0.03;87.46;100778.50;3550968;81;99038;-84
2022/01/21 20:37:04;;;;;;;19.10;5.78;;;;;;;0.04;87.76;100784.69;3549811;81;99059;-85
2022/01/21 20:42:08;;;;;;;12.33;4.80;;;;;;;0.05;88.03;100772.22;3565182;81;98592;-85
2022/01/21 20:47:12;;;;;;;13.90;4.50;;;;;;;0.06;88.45;100759.51;3555292;81;25593;-84
2022/01/21 20:52:14;;;;;;;18.83;4.70;;;;;;;0.07;88.58;100766.52;3543141;81;98628;-84
2022/01/21 20:57:15;;;;;;;12.53;3.83;;;;;;;0.07;88.86;100758.41;3566481;81;98742;-84
2022/01/21 21:02:17;;;;;;;11.03;4.23;;;;;;;0.07;88.99;100752.42;3562803;81;98842;-84
2022/01/21 21:07:18;;;;;;;11.67;4.20;;;;;;;0.08;89.39;100747.28;3553541;81;98745;-84
2022/01/21 21:12:19;;;;;;;15.27;3.87;;;;;;;0.09;89.40;100738.06;3550707;81;98628;-84
2022/01/21 21:27:52;;;;;;;11.60;4.70;;;;;;;0.16;90.40;100727.63;3559764;80;97960;-84
2022/01/21 22:16:41;;;;;;;17.20;6.15;;;;;;;0.41;95.58;100727.12;3563661;81;98715;-83
2022/01/21 23:02:14;;;;;;;15.67;5.13;;;;;;;0.57;99.14;100758.74;3566047;81;98494;-83
2022/01/21 23:07:17;;;;;;;12.07;4.80;;;;;;;0.61;99.24;100758.39;3584454;81;98650;-84
2022/01/21 23:12:18;;;;;;;13.93;4.97;;;;;;;0.61;99.53;100755.11;3576677;81;98628;-85
2022/01/21 23:17:19;;;;;;;21.45;8.43;;;;;;;0.62;100.00;100761.34;3583804;81;33333;-84
2022/01/21 23:22:20;;;;;;;16.33;6.37;;;;;;;0.63;100.00;100758.34;3556634;81;98831;-84
2022/01/21 23:27:31;;;;;;;14.00;6.17;;;;;;;0.68;100.00;100760.13;3563177;81;98803;-84
2022/01/21 23:32:26;;;;;;;14.13;5.70;;;;;;;0.68;100.00;100767.72;3569944;81;99008;-84
2022/01/21 23:37:33;;;;;;;18.32;6.12;;;;;;;0.70;100.00;100766.03;3577586;81;98865;-83
2022/01/21 23:42:32;;;;;;;17.32;7.12;;;;;;;0.71;100.00;100781.20;3556934;81;98962;-83
2022/01/21 23:47:33;;;;;;;16.50;6.83;;;;;;;0.73;100.00;100781.12;3558695;81;33797;-83
2022/01/21 23:52:36;;;;;;;12.87;6.50;;;;;;;0.75;100.00;100764.03;3539336;81;98645;-83
2022/01/21 23:57:36;;;;;;;15.58;4.85;;;;;;;0.78;100.00;100758.56;3564561;81;98701;-83
